Time;durP1;ratioP1;P1;durP2;ratioP2;P2;SDS_P1;SDS_P2;PMS_P1;PMS_P2;Temp;Humidity;BMP_temperature;BMP_pressure;BME280_temperature;BME280_humidity;BME280_pressure;Samples;Min_cycle;Max_cycle;Signal;HPM_P1;HPM_P2
2021/03/19 00:07:44;;;;;;;136.40;72.80;;;;;;;-2.28;75.70;99521.07;510519;1102;115101;-63
2021/03/19 00:17:48;;;;;;;126.00;70.27;;;;;;;-2.28;75.50;99515.92;510709;1100;115701;-64
2021/03/19 00:28:05;;;;;;;115.30;64.20;;;;;;;-2.36;75.50;99515.20;510494;1100;115497;-62
2021/03/19 00:38:10;;;;;;;112.83;66.80;;;;;;;-2.47;75.63;99510.16;510915;1100;115679;-62
2021/03/19 00:48:13;;;;;;;111.20;65.30;;;;;;;-2.60;75.84;99501.73;510963;1101;114702;-63
2021/03/19 00:58:26;;;;;;;120.87;65.87;;;;;;;-2.76;75.43;99497.64;510895;1102;114455;-64
2021/03/19 01:08:31;;;;;;;117.80;67.70;;;;;;;-3.05;75.61;99494.52;511134;1100;114448;-62
2021/03/19 01:18:35;;;;;;;73.67;46.13;;;;;;;-3.01;76.32;99496.17;511143;1102;114448;-64
2021/03/19 01:28:50;;;;;;;87.30;46.33;;;;;;;-2.86;76.93;99486.62;511114;1102;115471;-62
2021/03/19 01:38:59;;;;;;;76.83;47.73;;;;;;;-2.68;76.98;99490.70;510995;1102;114391;-62
2021/03/19 01:49:47;;;;;;;80.63;47.43;;;;;;;-2.58;76.88;99494.88;510869;1102;114832;-64
2021/03/19 02:00:27;;;;;;;74.00;43.47;;;;;;;-2.41;76.59;99491.23;510705;1102;114363;-63
2021/03/19 02:11:21;;;;;;;63.35;37.40;;;;;;;-2.42;76.61;99494.68;511111;1101;114927;-64
2021/03/19 02:22:01;;;;;;;74.20;42.00;;;;;;;-2.45;76.45;99489.58;509802;1101;114804;-63
2021/03/19 02:32:09;;;;;;;53.70;32.73;;;;;;;-2.56;76.07;99487.99;511126;1100;114664;-63
2021/03/19 02:42:14;;;;;;;66.80;38.40;;;;;;;-2.58;76.37;99483.73;511080;1101;115858;-64
2021/03/19 02:52:19;;;;;;;64.85;36.65;;;;;;;-2.61;76.60;99482.03;511243;1100;114328;-66
2021/03/19 03:02:23;;;;;;;46.60;29.45;;;;;;;-2.56;76.74;99493.13;510561;1102;114302;-64
2021/03/19 03:12:28;;;;;;;37.90;25.77;;;;;;;-2.46;76.68;99496.44;510865;1101;115172;-65
2021/03/19 03:22:33;;;;;;;32.13;19.00;;;;;;;-2.37;76.61;99492.05;511014;1101;114310;-63
2021/03/19 03:32:37;;;;;;;35.70;24.13;;;;;;;-2.27;76.88;99499.62;510892;1100;114953;-63
2021/03/19 03:42:41;;;;;;;40.43;24.97;;;;;;;-2.16;76.33;99496.06;511205;1102;114938;-63
2021/03/19 03:52:44;;;;;;;39.80;26.13;;;;;;;-2.12;76.65;99501.14;511201;1100;115131;-63
2021/03/19 04:02:48;;;;;;;43.17;26.57;;;;;;;-2.12;76.44;99495.17;510835;1102;115088;-64
2021/03/19 04:12:52;;;;;;;41.97;26.40;;;;;;;-2.35;76.78;99492.88;511221;1102;114306;-63
2021/03/19 04:22:55;;;;;;;41.20;24.47;;;;;;;-2.70;76.95;99498.42;510970;1101;115968;-63
2021/03/19 04:32:59;;;;;;;42.00;25.97;;;;;;;-3.02;77.15;99509.89;510845;1102;115697;-64
2021/03/19 04:43:05;;;;;;;33.00;20.77;;;;;;;-3.22;77.42;99504.94;511063;1102;116099;-64
2021/03/19 04:53:08;;;;;;;39.60;22.55;;;;;;;-3.32;78.08;99511.89;511038;1101;115845;-63
2021/03/19 05:03:11;;;;;;;55.23;34.10;;;;;;;-3.37;78.48;99516.19;511153;1102;115510;-63
2021/03/19 05:13:14;;;;;;;44.37;26.50;;;;;;;-3.20;78.03;99522.92;511161;1102;114476;-64
2021/03/19 05:23:20;;;;;;;39.33;22.87;;;;;;;-3.09;78.29;99531.38;511026;1100;115350;-63
2021/03/19 05:33:25;;;;;;;39.37;24.57;;;;;;;-2.92;77.87;99535.50;511010;1102;114897;-64
2021/03/19 05:43:33;;;;;;;39.03;25.03;;;;;;;-2.40;78.17;99532.38;511070;1101;114824;-62
2021/03/19 05:53:43;;;;;;;33.30;20.13;;;;;;;0.66;76.93;99535.56;510679;1100;114379;-63
2021/03/19 06:03:47;;;;;;;25.23;17.47;;;;;;;2.82;72.41;99526.86;510898;1100;114760;-63
2021/03/19 06:14:00;;;;;;;25.90;18.03;;;;;;;4.84;71.02;99526.39;510853;1100;114775;-63
2021/03/19 06:24:19;;;;;;;26.97;17.67;;;;;;;9.46;66.32;99516.27;510405;1102;115497;-62
2021/03/19 06:34:24;;;;;;;18.73;14.37;;;;;;;12.87;61.46;99513.66;511012;1100;114478;-65
2021/03/19 06:44:28;;;;;;;16.13;11.33;;;;;;;12.00;56.11;99519.04;510964;1102;114962;-64
2021/03/19 06:54:48;;;;;;;16.80;12.50;;;;;;;9.14;55.30;99533.00;510857;1102;114495;-63
2021/03/19 07:05:01;;;;;;;20.37;10.43;;;;;;;9.95;54.24;99529.00;511030;1102;115229;-64
2021/03/19 07:15:19;;;;;;;14.30;10.07;;;;;;;12.35;54.25;99533.30;510916;1102;115901;-64
2021/03/19 07:25:30;;;;;;;;;;;;;;;13.88;49.81;99526.24;510881;1102;115485;-64
2021/03/19 07:35:46;;;;;;;9.57;5.87;;;;;;;15.78;51.26;99537.19;510368;1102;101080;-65
2021/03/19 07:46:04;;;;;;;6.57;4.63;;;;;;;21.91;43.39;99527.42;502392;1102;10001788;-63
2021/03/19 07:56:21;;;;;;;3.87;3.47;;;;;;;21.07;39.24;99525.97;510778;1102;114951;-65
2021/03/19 08:06:34;;;;;;;4.28;2.40;;;;;;;16.14;40.16;99524.36;510582;1101;114402;-65
2021/03/19 08:16:43;;;;;;;3.23;2.80;;;;;;;15.55;40.92;99526.78;510420;1102;115559;-60
2021/03/19 08:26:58;;;;;;;11.20;4.87;;;;;;;17.42;37.31;99521.66;510601;1101;115022;-63
2021/03/19 08:37:01;;;;;;;6.57;3.70;;;;;;;13.39;37.75;99531.73;510441;1101;115510;-63
2021/03/19 08:47:20;;;;;;;5.67;5.10;;;;;;;14.29;38.67;99523.89;510542;1100;114398;-62
2021/03/19 08:57:35;;;;;;;4.90;4.17;;;;;;;12.03;38.23;99532.03;517620;1101;114744;-62
2021/03/19 09:07:41;;;;;;;4.83;3.53;;;;;;;7.95;40.01;99540.49;512527;1100;114247;-60
2021/03/19 09:17:56;;;;;;;5.17;3.93;;;;;;;5.39;42.88;99527.56;514193;1100;114099;-62
2021/03/19 09:28:25;;;;;;;6.73;4.07;;;;;;;4.66;44.68;99531.42;511146;1101;113751;-66
2021/03/19 09:38:41;;;;;;;7.93;4.57;;;;;;;6.33;44.54;99526.84;510839;1102;115190;-62
2021/03/19 09:48:55;;;;;;;4.57;2.80;;;;;;;5.33;42.80;99533.89;510689;1102;115432;-61
2021/03/19 09:59:08;;;;;;;5.30;4.17;;;;;;;4.57;45.08;99545.65;510697;1102;114545;-65
2021/03/19 10:09:18;;;;;;;6.10;3.90;;;;;;;4.63;44.88;99544.56;511013;1102;114715;-66
2021/03/19 10:19:22;;;;;;;5.60;3.83;;;;;;;4.57;44.66;99542.22;502032;1101;10000983;-66
2021/03/19 10:29:28;;;;;;;3.45;3.15;;;;;;;4.11;45.26;99545.71;510521;1102;114975;-66
2021/03/19 10:39:37;;;;;;;16.37;8.53;;;;;;;4.25;45.40;99549.53;510548;1100;116003;-66
2021/03/19 10:49:46;;;;;;;7.90;5.00;;;;;;;4.00;45.87;99540.07;510623;1100;114605;-66
2021/03/19 10:59:51;;;;;;;5.60;4.17;;;;;;;4.21;46.04;99553.99;510718;1102;115340;-66
2021/03/19 11:10:24;;;;;;;9.60;5.10;;;;;;;4.39;46.24;99536.00;510602;1102;114174;-62
2021/03/19 11:20:36;;;;;;;6.03;4.33;;;;;;;4.56;45.11;99538.77;510129;1101;115378;-69
2021/03/19 11:30:39;;;;;;;6.47;4.23;;;;;;;3.97;45.72;99542.77;510554;1102;115046;-66
2021/03/19 11:40:44;;;;;;;5.35;3.90;;;;;;;4.26;45.85;99533.85;510682;1102;113848;-65
2021/03/19 11:50:53;;;;;;;7.27;4.67;;;;;;;3.36;47.87;99550.98;510742;1100;113820;-65
2021/03/19 12:00:58;;;;;;;9.50;6.63;;;;;;;2.90;50.38;99550.81;510416;1102;113704;-65
2021/03/19 12:11:03;;;;;;;10.90;6.73;;;;;;;3.38;50.15;99542.28;510490;1102;114855;-65
2021/03/19 12:21:07;;;;;;;7.97;6.10;;;;;;;3.77;50.52;99544.37;510693;1100;113925;-66
2021/03/19 12:31:12;;;;;;;8.20;5.97;;;;;;;4.06;50.24;99542.42;510645;1100;114770;-67
2021/03/19 12:41:15;;;;;;;9.50;6.20;;;;;;;3.87;50.55;99537.08;510275;1102;113902;-67
2021/03/19 12:51:19;;;;;;;7.47;5.90;;;;;;;2.98;53.46;99534.13;510837;1100;114380;-66
2021/03/19 13:01:22;;;;;;;7.13;5.90;;;;;;;1.98;56.62;99539.83;510576;1101;114650;-65
2021/03/19 13:11:27;;;;;;;8.50;6.50;;;;;;;2.20;57.61;99532.25;510403;1101;115516;-66
2021/03/19 13:21:31;;;;;;;8.67;6.70;;;;;;;2.45;57.23;99515.10;510585;1101;115868;-64
2021/03/19 13:31:35;;;;;;;10.33;7.30;;;;;;;2.58;56.17;99518.13;510821;1100;114127;-65
2021/03/19 13:41:39;;;;;;;9.53;6.63;;;;;;;2.46;57.50;99522.81;510491;1101;115052;-65
2021/03/19 13:51:42;;;;;;;9.37;6.97;;;;;;;1.71;59.83;99541.47;510064;1100;114158;-66
2021/03/19 14:01:47;;;;;;;8.20;6.87;;;;;;;1.13;63.20;99540.41;510300;1102;114899;-70
2021/03/19 14:11:52;;;;;;;7.40;5.97;;;;;;;0.45;65.08;99552.39;511220;1102;113692;-71
2021/03/19 14:21:55;;;;;;;11.90;8.57;;;;;;;0.21;67.20;99560.68;511296;1102;114439;-71
2021/03/19 14:31:58;;;;;;;11.65;8.50;;;;;;;0.14;66.61;99561.69;510813;1102;113986;-62
2021/03/19 14:42:02;;;;;;;17.20;10.83;;;;;;;0.47;67.07;99561.82;522845;1101;114302;-60
2021/03/19 14:52:06;;;;;;;10.03;5.80;;;;;;;0.69;65.58;99562.19;511128;1102;114282;-62
2021/03/19 15:02:09;;;;;;;7.23;4.77;;;;;;;0.70;65.21;99575.94;511096;1101;114394;-61
2021/03/19 15:12:13;;;;;;;7.67;5.00;;;;;;;0.39;65.82;99576.64;511139;1100;113764;-69
2021/03/19 15:22:16;;;;;;;5.20;4.17;;;;;;;-0.01;65.32;99597.28;510901;1100;114165;-69
2021/03/19 15:32:20;;;;;;;6.83;5.73;;;;;;;-0.19;66.42;99613.98;511225;1101;114632;-66
2021/03/19 15:42:24;;;;;;;4.93;3.33;;;;;;;-0.45;65.41;99624.80;511047;1100;114228;-63
2021/03/19 15:52:27;;;;;;;4.70;3.67;;;;;;;-0.60;66.43;99628.49;502359;1102;10001309;-61
2021/03/19 16:02:31;;;;;;;8.03;3.67;;;;;;;-0.70;65.74;99638.13;510582;1100;115230;-61
2021/03/19 16:12:36;;;;;;;5.80;4.23;;;;;;;-0.86;66.35;99650.42;510569;1102;114682;-62
2021/03/19 16:22:39;;;;;;;7.37;4.43;;;;;;;-0.99;66.30;99665.22;510768;1102;114870;-61
2021/03/19 16:32:44;;;;;;;10.07;6.43;;;;;;;-1.16;66.88;99668.05;510811;1101;114039;-62
2021/03/19 16:42:48;;;;;;;7.20;5.07;;;;;;;-1.31;66.78;99676.88;510604;1100;115005;-63
2021/03/19 16:52:54;;;;;;;8.53;6.23;;;;;;;-1.43;66.96;99686.47;510550;1100;114489;-62
2021/03/19 17:03:00;;;;;;;7.77;4.67;;;;;;;-1.55;67.37;99714.96;510512;1102;114368;-66
2021/03/19 17:13:04;;;;;;;8.58;6.03;;;;;;;-1.68;66.98;99719.39;511080;1102;114076;-73
2021/03/19 17:23:09;;;;;;;7.80;6.03;;;;;;;-1.86;67.47;99731.59;511197;1101;115668;-69
2021/03/19 17:33:14;;;;;;;11.03;6.50;;;;;;;-1.97;68.06;99738.57;511069;1102;114988;-65
2021/03/19 17:43:20;;;;;;;9.53;5.37;;;;;;;-2.01;66.82;99750.64;511052;1100;114174;-70
2021/03/19 17:53:27;;;;;;;7.47;4.23;;;;;;;-2.10;67.04;99766.16;511242;1102;115010;-66
2021/03/19 18:03:30;;;;;;;8.00;5.53;;;;;;;-2.27;66.69;99754.29;511023;1100;114750;-65
2021/03/19 18:13:35;;;;;;;8.27;5.10;;;;;;;-2.30;66.14;99763.77;510615;1100;115155;-67
2021/03/19 18:23:41;;;;;;;6.43;4.73;;;;;;;-2.38;65.61;99770.69;510851;1102;113947;-68
2021/03/19 18:33:44;;;;;;;7.60;5.10;;;;;;;-2.46;64.93;99796.47;510940;1101;113883;-69
2021/03/19 18:43:48;;;;;;;9.60;5.60;;;;;;;-2.56;65.00;99801.68;502212;1100;10001767;-66
2021/03/19 18:53:52;;;;;;;9.23;5.40;;;;;;;-2.62;65.34;99811.16;510493;1100;114958;-66
2021/03/19 19:03:55;;;;;;;6.05;4.20;;;;;;;-2.69;64.56;99823.19;510499;1100;114130;-65
2021/03/19 19:13:59;;;;;;;4.80;3.63;;;;;;;-2.75;63.06;99831.80;510565;1101;115039;-68
2021/03/19 19:24:03;;;;;;;6.55;2.90;;;;;;;-2.79;62.60;99842.09;510683;1101;115162;-71
2021/03/19 19:34:06;;;;;;;5.90;4.07;;;;;;;-2.88;61.32;99851.55;510346;1100;114195;-67
2021/03/19 19:44:10;;;;;;;4.93;3.13;;;;;;;-2.92;61.06;99864.42;510482;1101;114121;-65
2021/03/19 19:54:17;;;;;;;5.87;3.53;;;;;;;-3.02;61.57;99861.05;510562;1102;114622;-66
2021/03/19 20:04:21;;;;;;;7.47;2.53;;;;;;;-3.14;61.66;99874.77;510355;1100;114170;-66
2021/03/19 20:14:24;;;;;;;6.07;2.57;;;;;;;-3.23;60.75;99865.39;510694;1101;114416;-67
2021/03/19 20:24:28;;;;;;;3.77;2.60;;;;;;;-3.41;60.65;99874.00;510764;1100;114476;-65
2021/03/19 20:34:31;;;;;;;4.60;2.90;;;;;;;-3.73;59.71;99878.34;510445;1100;115587;-68
2021/03/19 20:44:36;;;;;;;7.73;3.47;;;;;;;-4.04;61.20;99895.42;510345;1102;114923;-66
2021/03/19 20:54:40;;;;;;;12.23;6.43;;;;;;;-4.26;60.90;99903.95;510312;1100;115744;-65
2021/03/19 21:04:44;;;;;;;14.07;5.93;;;;;;;-4.34;61.71;99905.64;510506;1100;114623;-63
2021/03/19 21:14:47;;;;;;;8.20;4.57;;;;;;;-4.45;59.96;99913.33;510404;1100;114357;-63
2021/03/19 21:24:50;;;;;;;13.37;4.30;;;;;;;-4.54;60.16;99909.03;510494;1102;114173;-63
2021/03/19 21:34:53;;;;;;;11.27;4.20;;;;;;;-4.59;61.00;99918.41;510401;1100;114727;-63
2021/03/19 21:44:57;;;;;;;5.80;3.35;;;;;;;-4.73;61.16;99933.75;510179;1102;114426;-62
2021/03/19 21:55:00;;;;;;;9.47;3.97;;;;;;;-4.83;61.03;99932.00;509854;1100;114625;-64
2021/03/19 22:05:06;;;;;;;12.73;5.80;;;;;;;-4.89;61.50;99934.52;510559;1102;114077;-63
2021/03/19 22:15:12;;;;;;;5.20;3.20;;;;;;;-4.92;61.05;99943.03;510564;1101;114344;-64
2021/03/19 22:25:16;;;;;;;7.95;4.33;;;;;;;-5.04;61.45;99959.20;510461;1102;114129;-64
2021/03/19 22:35:22;;;;;;;12.67;4.77;;;;;;;-5.13;61.63;99966.83;510548;1102;114445;-64
2021/03/19 22:45:24;;;;;;;;;;;;;;;-5.16;61.72;99975.34;510791;1100;114601;-66
2021/03/19 22:55:28;;;;;;;9.17;5.23;;;;;;;-5.22;61.25;99965.08;510605;1100;100310;-65
2021/03/19 23:05:31;;;;;;;12.57;4.43;;;;;;;-5.19;60.65;99980.45;510679;1102;114246;-63
2021/03/19 23:15:36;;;;;;;9.90;5.27;;;;;;;-5.24;61.66;99988.09;510519;1101;114340;-66
2021/03/19 23:25:40;;;;;;;11.43;4.90;;;;;;;-5.26;61.06;99999.16;510420;1100;114310;-66
2021/03/19 23:35:46;;;;;;;10.17;3.97;;;;;;;-5.32;61.58;100002.53;510560;1102;114472;-66
2021/03/19 23:45:59;;;;;;;8.53;4.27;;;;;;;-5.23;62.07;100004.33;510831;1100;114516;-66
2021/03/19 23:56:03;;;;;;;7.80;4.20;;;;;;;-5.22;61.69;100011.16;510858;1102;114606;-59
